sensor_id;sensor_type;location;lat;lon;timestamp;pressure;altitude;pressure_sealevel;temperature
33267;BMP180;19638;49.080;11.896;2023-02-01T00:03:30;96577.00;;;4.40
33267;BMP180;19638;49.080;11.896;2023-02-01T00:07:33;96577.00;;;4.40
33267;BMP180;19638;49.080;11.896;2023-02-01T00:11:39;96573.00;;;4.40
33267;BMP180;19638;49.080;11.896;2023-02-01T00:15:44;96575.00;;;4.40
33267;BMP180;19638;49.080;11.896;2023-02-01T00:19:51;96579.00;;;4.50
33267;BMP180;19638;49.080;11.896;2023-02-01T00:23:58;96579.00;;;4.40
33267;BMP180;19638;49.080;11.896;2023-02-01T00:28:01;96585.00;;;4.50
33267;BMP180;19638;49.080;11.896;2023-02-01T00:32:12;96584.00;;;4.50
33267;BMP180;19638;49.080;11.896;2023-02-01T00:36:15;96575.00;;;4.50
33267;BMP180;19638;49.080;11.896;2023-02-01T00:40:19;96564.00;;;4.50
33267;BMP180;19638;49.080;11.896;2023-02-01T00:44:22;96569.00;;;4.50
33267;BMP180;19638;49.080;11.896;2023-02-01T00:48:27;96565.00;;;4.50
33267;BMP180;19638;49.080;11.896;2023-02-01T00:52:31;96564.00;;;4.50
33267;BMP180;19638;49.080;11.896;2023-02-01T00:56:39;96563.00;;;4.50
33267;BMP180;19638;49.080;11.896;2023-02-01T01:00:44;96557.00;;;4.50
33267;BMP180;19638;49.080;11.896;2023-02-01T01:04:50;96565.00;;;4.50
33267;BMP180;19638;49.080;11.896;2023-02-01T01:08:56;96576.00;;;4.60
33267;BMP180;19638;49.080;11.896;2023-02-01T01:13:00;96563.00;;;4.60
33267;BMP180;19638;49.080;11.896;2023-02-01T01:17:04;96561.00;;;4.60
33267;BMP180;19638;49.080;11.896;2023-02-01T01:21:11;96568.00;;;4.60
33267;BMP180;19638;49.080;11.896;2023-02-01T01:25:15;96571.00;;;4.70
33267;BMP180;19638;49.080;11.896;2023-02-01T01:29:18;96570.00;;;4.70
33267;BMP180;19638;49.080;11.896;2023-02-01T01:33:21;96571.00;;;4.70
33267;BMP180;19638;49.080;11.896;2023-02-01T01:37:26;96575.00;;;4.70
33267;BMP180;19638;49.080;11.896;2023-02-01T01:41:30;96578.00;;;4.70
33267;BMP180;19638;49.080;11.896;2023-02-01T01:45:34;96565.00;;;4.80
33267;BMP180;19638;49.080;11.896;2023-02-01T01:49:37;96559.00;;;4.80
33267;BMP180;19638;49.080;11.896;2023-02-01T01:53:46;96551.00;;;4.80
33267;BMP180;19638;49.080;11.896;2023-02-01T01:57:58;96540.00;;;4.80
33267;BMP180;19638;49.080;11.896;2023-02-01T02:02:04;96534.00;;;4.80
33267;BMP180;19638;49.080;11.896;2023-02-01T02:06:14;96533.00;;;4.80
33267;BMP180;19638;49.080;11.896;2023-02-01T02:10:19;96520.00;;;4.80
33267;BMP180;19638;49.080;11.896;2023-02-01T02:14:46;96526.00;;;4.80
33267;BMP180;19638;49.080;11.896;2023-02-01T02:19:00;96526.00;;;4.80
33267;BMP180;19638;49.080;11.896;2023-02-01T02:27:59;96514.00;;;4.80
33267;BMP180;19638;49.080;11.896;2023-02-01T02:32:21;96528.00;;;4.70
33267;BMP180;19638;49.080;11.896;2023-02-01T02:36:38;96517.00;;;4.50
33267;BMP180;19638;49.080;11.896;2023-02-01T02:40:49;96531.00;;;4.40
33267;BMP180;19638;49.080;11.896;2023-02-01T02:44:57;96531.00;;;4.40
33267;BMP180;19638;49.080;11.896;2023-02-01T02:49:28;96522.00;;;4.40
33267;BMP180;19638;49.080;11.896;2023-02-01T02:53:39;96504.00;;;4.30
33267;BMP180;19638;49.080;11.896;2023-02-01T02:58:08;96505.00;;;4.30
33267;BMP180;19638;49.080;11.896;2023-02-01T03:02:34;96504.00;;;4.40
33267;BMP180;19638;49.080;11.896;2023-02-01T03:06:56;96503.00;;;4.40
33267;BMP180;19638;49.080;11.896;2023-02-01T03:11:02;96507.00;;;4.40
33267;BMP180;19638;49.080;11.896;2023-02-01T03:15:10;96502.00;;;4.40
33267;BMP180;19638;49.080;11.896;2023-02-01T03:19:17;96504.00;;;4.40
33267;BMP180;19638;49.080;11.896;2023-02-01T03:23:31;96488.00;;;4.40
33267;BMP180;19638;49.080;11.896;2023-02-01T03:27:47;96483.00;;;4.50
33267;BMP180;19638;49.080;11.896;2023-02-01T03:31:53;96480.00;;;4.50
33267;BMP180;19638;49.080;11.896;2023-02-01T03:36:05;96472.00;;;4.60
33267;BMP180;19638;49.080;11.896;2023-02-01T03:40:15;96462.00;;;4.60
33267;BMP180;19638;49.080;11.896;2023-02-01T03:44:29;96465.00;;;4.60
33267;BMP180;19638;49.080;11.896;2023-02-01T03:48:34;96451.00;;;4.50
33267;BMP180;19638;49.080;11.896;2023-02-01T03:52:44;96453.00;;;4.50
33267;BMP180;19638;49.080;11.896;2023-02-01T03:56:50;96457.00;;;4.50
33267;BMP180;19638;49.080;11.896;2023-02-01T04:00:58;96468.00;;;4.60
33267;BMP180;19638;49.080;11.896;2023-02-01T04:05:02;96467.00;;;4.60
33267;BMP180;19638;49.080;11.896;2023-02-01T04:09:08;96460.00;;;4.60
33267;BMP180;19638;49.080;11.896;2023-02-01T04:13:11;96466.00;;;4.70
33267;BMP180;19638;49.080;11.896;2023-02-01T04:17:16;96462.00;;;4.70
33267;BMP180;19638;49.080;11.896;2023-02-01T04:21:20;96463.00;;;4.70
33267;BMP180;19638;49.080;11.896;2023-02-01T04:25:23;96473.00;;;4.80
33267;BMP180;19638;49.080;11.896;2023-02-01T04:29:26;96473.00;;;4.80
33267;BMP180;19638;49.080;11.896;2023-02-01T04:33:32;96462.00;;;4.80
33267;BMP180;19638;49.080;11.896;2023-02-01T04:37:40;96462.00;;;4.80
33267;BMP180;19638;49.080;11.896;2023-02-01T04:41:48;96451.00;;;4.80
33267;BMP180;19638;49.080;11.896;2023-02-01T04:45:55;96442.00;;;4.90
33267;BMP180;19638;49.080;11.896;2023-02-01T04:50:05;96435.00;;;4.90
33267;BMP180;19638;49.080;11.896;2023-02-01T04:54:16;96430.00;;;4.90
33267;BMP180;19638;49.080;11.896;2023-02-01T04:58:19;96424.00;;;4.90
33267;BMP180;19638;49.080;11.896;2023-02-01T05:02:22;96416.00;;;4.90
33267;BMP180;19638;49.080;11.896;2023-02-01T05:06:27;96415.00;;;4.90
33267;BMP180;19638;49.080;11.896;2023-02-01T05:10:33;96421.00;;;4.90
33267;BMP180;19638;49.080;11.896;2023-02-01T05:14:38;96408.00;;;5.00
33267;BMP180;19638;49.080;11.896;2023-02-01T05:18:47;96419.00;;;5.00
33267;BMP180;19638;49.080;11.896;2023-02-01T05:22:56;96405.00;;;5.00
33267;BMP180;19638;49.080;11.896;2023-02-01T05:26:59;96404.00;;;5.00
33267;BMP180;19638;49.080;11.896;2023-02-01T05:31:09;96405.00;;;5.00
33267;BMP180;19638;49.080;11.896;2023-02-01T05:35:12;96397.00;;;5.00
33267;BMP180;19638;49.080;11.896;2023-02-01T05:39:17;96400.00;;;5.00
33267;BMP180;19638;49.080;11.896;2023-02-01T05:43:22;96392.00;;;5.00
33267;BMP180;19638;49.080;11.896;2023-02-01T05:47:29;96380.00;;;4.90
33267;BMP180;19638;49.080;11.896;2023-02-01T05:51:34;96373.00;;;4.90
33267;BMP180;19638;49.080;11.896;2023-02-01T05:55:41;96364.00;;;4.80
33267;BMP180;19638;49.080;11.896;2023-02-01T05:59:44;96375.00;;;4.60
33267;BMP180;19638;49.080;11.896;2023-02-01T06:03:50;96370.00;;;4.60
33267;BMP180;19638;49.080;11.896;2023-02-01T06:07:53;96364.00;;;4.50
33267;BMP180;19638;49.080;11.896;2023-02-01T06:11:59;96360.00;;;4.50
33267;BMP180;19638;49.080;11.896;2023-02-01T06:16:07;96367.00;;;4.50
33267;BMP180;19638;49.080;11.896;2023-02-01T06:20:16;96360.00;;;4.50
33267;BMP180;19638;49.080;11.896;2023-02-01T06:24:22;96365.00;;;4.50
33267;BMP180;19638;49.080;11.896;2023-02-01T06:28:27;96368.00;;;4.50
33267;BMP180;19638;49.080;11.896;2023-02-01T06:32:30;96356.00;;;4.50
33267;BMP180;19638;49.080;11.896;2023-02-01T06:36:36;96354.00;;;4.50
33267;BMP180;19638;49.080;11.896;2023-02-01T06:40:40;96358.00;;;4.50
33267;BMP180;19638;49.080;11.896;2023-02-01T06:44:45;96367.00;;;4.50
33267;BMP180;19638;49.080;11.896;2023-02-01T06:48:50;96361.00;;;4.50
33267;BMP180;19638;49.080;11.896;2023-02-01T06:52:55;96361.00;;;4.50
33267;BMP180;19638;49.080;11.896;2023-02-01T06:56:58;96368.00;;;4.50
33267;BMP180;19638;49.080;11.896;2023-02-01T07:01:06;96366.00;;;4.50
33267;BMP180;19638;49.080;11.896;2023-02-01T07:05:10;96373.00;;;4.50
33267;BMP180;19638;49.080;11.896;2023-02-01T07:09:14;96387.00;;;4.50
33267;BMP180;19638;49.080;11.896;2023-02-01T07:13:17;96406.00;;;4.60
33267;BMP180;19638;49.080;11.896;2023-02-01T07:17:22;96402.00;;;4.50
33267;BMP180;19638;49.080;11.896;2023-02-01T07:21:26;96430.00;;;4.40
33267;BMP180;19638;49.080;11.896;2023-02-01T07:25:30;96432.00;;;4.40
33267;BMP180;19638;49.080;11.896;2023-02-01T07:29:36;96429.00;;;4.30
33267;BMP180;19638;49.080;11.896;2023-02-01T07:33:40;96423.00;;;4.20
33267;BMP180;19638;49.080;11.896;2023-02-01T07:37:45;96417.00;;;4.20
33267;BMP180;19638;49.080;11.896;2023-02-01T07:41:53;96416.00;;;4.20
33267;BMP180;19638;49.080;11.896;2023-02-01T07:46:00;96412.00;;;4.30
33267;BMP180;19638;49.080;11.896;2023-02-01T07:50:07;96417.00;;;4.30
33267;BMP180;19638;49.080;11.896;2023-02-01T07:54:13;96416.00;;;4.30
33267;BMP180;19638;49.080;11.896;2023-02-01T07:58:17;96419.00;;;4.30
33267;BMP180;19638;49.080;11.896;2023-02-01T08:02:21;96420.00;;;4.30
33267;BMP180;19638;49.080;11.896;2023-02-01T08:06:27;96420.00;;;4.30
33267;BMP180;19638;49.080;11.896;2023-02-01T08:10:31;96423.00;;;4.40
33267;BMP180;19638;49.080;11.896;2023-02-01T08:14:35;96436.00;;;4.40
33267;BMP180;19638;49.080;11.896;2023-02-01T08:18:45;96433.00;;;4.40
33267;BMP180;19638;49.080;11.896;2023-02-01T08:22:53;96434.00;;;4.50
33267;BMP180;19638;49.080;11.896;2023-02-01T08:26:56;96441.00;;;4.60
33267;BMP180;19638;49.080;11.896;2023-02-01T08:31:07;96439.00;;;4.60
33267;BMP180;19638;49.080;11.896;2023-02-01T08:35:11;96423.00;;;4.60
33267;BMP180;19638;49.080;11.896;2023-02-01T08:39:18;96427.00;;;4.70
33267;BMP180;19638;49.080;11.896;2023-02-01T08:43:22;96433.00;;;4.70
33267;BMP180;19638;49.080;11.896;2023-02-01T08:47:25;96441.00;;;4.70
33267;BMP180;19638;49.080;11.896;2023-02-01T08:51:28;96433.00;;;4.80
33267;BMP180;19638;49.080;11.896;2023-02-01T08:55:34;96425.00;;;4.80
33267;BMP180;19638;49.080;11.896;2023-02-01T08:59:40;96438.00;;;4.80
33267;BMP180;19638;49.080;11.896;2023-02-01T09:03:45;96433.00;;;5.00
33267;BMP180;19638;49.080;11.896;2023-02-01T09:07:51;96431.00;;;5.10
33267;BMP180;19638;49.080;11.896;2023-02-01T09:11:56;96426.00;;;5.10
33267;BMP180;19638;49.080;11.896;2023-02-01T09:16:00;96431.00;;;5.10
33267;BMP180;19638;49.080;11.896;2023-02-01T09:20:06;96445.00;;;5.10
33267;BMP180;19638;49.080;11.896;2023-02-01T09:24:12;96444.00;;;5.10
33267;BMP180;19638;49.080;11.896;2023-02-01T09:28:17;96435.00;;;5.00
33267;BMP180;19638;49.080;11.896;2023-02-01T09:32:21;96436.00;;;5.00
33267;BMP180;19638;49.080;11.896;2023-02-01T09:36:27;96448.00;;;5.10
33267;BMP180;19638;49.080;11.896;2023-02-01T09:40:34;96429.00;;;5.00
33267;BMP180;19638;49.080;11.896;2023-02-01T09:44:57;96444.00;;;5.10
33267;BMP180;19638;49.080;11.896;2023-02-01T09:49:10;96451.00;;;5.10
33267;BMP180;19638;49.080;11.896;2023-02-01T09:53:20;96456.00;;;5.00
33267;BMP180;19638;49.080;11.896;2023-02-01T09:57:28;96465.00;;;5.00
33267;BMP180;19638;49.080;11.896;2023-02-01T10:01:35;96458.00;;;4.90
33267;BMP180;19638;49.080;11.896;2023-02-01T10:10:23;96453.00;;;4.80
33267;BMP180;19638;49.080;11.896;2023-02-01T10:14:50;96444.00;;;4.80
33267;BMP180;19638;49.080;11.896;2023-02-01T10:19:10;96450.00;;;4.80
33267;BMP180;19638;49.080;11.896;2023-02-01T10:23:32;96435.00;;;4.90
33267;BMP180;19638;49.080;11.896;2023-02-01T10:27:40;96450.00;;;4.90
33267;BMP180;19638;49.080;11.896;2023-02-01T10:31:48;96451.00;;;5.00
33267;BMP180;19638;49.080;11.896;2023-02-01T10:35:55;96440.00;;;5.10
33267;BMP180;19638;49.080;11.896;2023-02-01T10:40:00;96441.00;;;5.20
33267;BMP180;19638;49.080;11.896;2023-02-01T10:44:09;96476.00;;;5.20
33267;BMP180;19638;49.080;11.896;2023-02-01T10:48:15;96494.00;;;5.10
33267;BMP180;19638;49.080;11.896;2023-02-01T10:52:31;96470.00;;;4.70
33267;BMP180;19638;49.080;11.896;2023-02-01T10:56:38;96474.00;;;4.20
33267;BMP180;19638;49.080;11.896;2023-02-01T11:00:54;96486.00;;;3.90
33267;BMP180;19638;49.080;11.896;2023-02-01T11:05:00;96501.00;;;4.10
33267;BMP180;19638;49.080;11.896;2023-02-01T11:09:19;96508.00;;;4.50
33267;BMP180;19638;49.080;11.896;2023-02-01T11:13:31;96480.00;;;4.70
33267;BMP180;19638;49.080;11.896;2023-02-01T11:17:40;96478.00;;;5.10
33267;BMP180;19638;49.080;11.896;2023-02-01T11:21:48;96469.00;;;5.30
33267;BMP180;19638;49.080;11.896;2023-02-01T11:25:56;96448.00;;;5.50
33267;BMP180;19638;49.080;11.896;2023-02-01T11:30:13;96457.00;;;5.60
33267;BMP180;19638;49.080;11.896;2023-02-01T11:34:21;96448.00;;;5.70
33267;BMP180;19638;49.080;11.896;2023-02-01T11:38:29;96435.00;;;5.80
33267;BMP180;19638;49.080;11.896;2023-02-01T11:42:37;96430.00;;;5.90
33267;BMP180;19638;49.080;11.896;2023-02-01T11:47:25;96413.00;;;5.80
33267;BMP180;19638;49.080;11.896;2023-02-01T11:51:41;96401.00;;;5.80
33267;BMP180;19638;49.080;11.896;2023-02-01T11:55:53;96407.00;;;5.90
33267;BMP180;19638;49.080;11.896;2023-02-01T12:00:28;96407.00;;;6.10
33267;BMP180;19638;49.080;11.896;2023-02-01T12:04:59;96410.00;;;6.20
33267;BMP180;19638;49.080;11.896;2023-02-01T12:09:13;96406.00;;;6.40
33267;BMP180;19638;49.080;11.896;2023-02-01T12:13:28;96409.00;;;6.40
33267;BMP180;19638;49.080;11.896;2023-02-01T12:22:33;96414.00;;;6.40
33267;BMP180;19638;49.080;11.896;2023-02-01T12:27:01;96418.00;;;6.30
33267;BMP180;19638;49.080;11.896;2023-02-01T12:31:23;96408.00;;;6.40
33267;BMP180;19638;49.080;11.896;2023-02-01T12:35:42;96419.00;;;6.40
33267;BMP180;19638;49.080;11.896;2023-02-01T12:39:56;96421.00;;;6.70
33267;BMP180;19638;49.080;11.896;2023-02-01T12:44:07;96417.00;;;6.80
33267;BMP180;19638;49.080;11.896;2023-02-01T12:48:23;96433.00;;;6.80
33267;BMP180;19638;49.080;11.896;2023-02-01T12:52:36;96427.00;;;6.50
33267;BMP180;19638;49.080;11.896;2023-02-01T12:56:43;96444.00;;;6.00
33267;BMP180;19638;49.080;11.896;2023-02-01T13:00:52;96433.00;;;5.70
33267;BMP180;19638;49.080;11.896;2023-02-01T13:05:03;96434.00;;;5.60
33267;BMP180;19638;49.080;11.896;2023-02-01T13:09:17;96425.00;;;5.60
33267;BMP180;19638;49.080;11.896;2023-02-01T13:13:28;96433.00;;;5.60
33267;BMP180;19638;49.080;11.896;2023-02-01T13:17:33;96432.00;;;5.60
33267;BMP180;19638;49.080;11.896;2023-02-01T13:21:40;96422.00;;;5.60
33267;BMP180;19638;49.080;11.896;2023-02-01T13:25:47;96424.00;;;5.60
33267;BMP180;19638;49.080;11.896;2023-02-01T13:29:55;96410.00;;;5.70
33267;BMP180;19638;49.080;11.896;2023-02-01T13:34:24;96429.00;;;5.70
33267;BMP180;19638;49.080;11.896;2023-02-01T13:43:07;96407.00;;;5.80
33267;BMP180;19638;49.080;11.896;2023-02-01T13:47:21;96416.00;;;5.80
33267;BMP180;19638;49.080;11.896;2023-02-01T13:51:40;96404.00;;;5.80
33267;BMP180;19638;49.080;11.896;2023-02-01T13:55:46;96415.00;;;5.80
33267;BMP180;19638;49.080;11.896;2023-02-01T13:59:55;96403.00;;;5.90
33267;BMP180;19638;49.080;11.896;2023-02-01T14:04:46;96409.00;;;5.80
33267;BMP180;19638;49.080;11.896;2023-02-01T14:13:31;96397.00;;;5.70
33267;BMP180;19638;49.080;11.896;2023-02-01T14:17:37;96395.00;;;5.70
33267;BMP180;19638;49.080;11.896;2023-02-01T14:21:48;96380.00;;;5.70
33267;BMP180;19638;49.080;11.896;2023-02-01T14:26:10;96379.00;;;5.70
33267;BMP180;19638;49.080;11.896;2023-02-01T14:30:17;96388.00;;;5.70
33267;BMP180;19638;49.080;11.896;2023-02-01T14:34:31;96393.00;;;5.70
33267;BMP180;19638;49.080;11.896;2023-02-01T14:38:49;96391.00;;;5.70
33267;BMP180;19638;49.080;11.896;2023-02-01T14:42:55;96388.00;;;5.70
33267;BMP180;19638;49.080;11.896;2023-02-01T14:47:27;96395.00;;;5.70
33267;BMP180;19638;49.080;11.896;2023-02-01T14:51:35;96394.00;;;5.60
33267;BMP180;19638;49.080;11.896;2023-02-01T14:55:40;96406.00;;;5.60
33267;BMP180;19638;49.080;11.896;2023-02-01T14:59:46;96406.00;;;5.50
33267;BMP180;19638;49.080;11.896;2023-02-01T15:03:56;96398.00;;;5.50
33267;BMP180;19638;49.080;11.896;2023-02-01T15:08:11;96393.00;;;5.50
33267;BMP180;19638;49.080;11.896;2023-02-01T15:12:18;96389.00;;;5.50
33267;BMP180;19638;49.080;11.896;2023-02-01T15:16:42;96389.00;;;5.50
33267;BMP180;19638;49.080;11.896;2023-02-01T15:20:56;96385.00;;;5.50
33267;BMP180;19638;49.080;11.896;2023-02-01T15:25:26;96383.00;;;5.40
33267;BMP180;19638;49.080;11.896;2023-02-01T15:29:32;96384.00;;;5.40
33267;BMP180;19638;49.080;11.896;2023-02-01T15:33:36;96373.00;;;5.40
33267;BMP180;19638;49.080;11.896;2023-02-01T15:37:40;96372.00;;;5.40
33267;BMP180;19638;49.080;11.896;2023-02-01T15:41:46;96375.00;;;5.40
33267;BMP180;19638;49.080;11.896;2023-02-01T15:45:50;96360.00;;;5.40
33267;BMP180;19638;49.080;11.896;2023-02-01T15:49:58;96358.00;;;5.40
33267;BMP180;19638;49.080;11.896;2023-02-01T15:54:04;96361.00;;;5.40
33267;BMP180;19638;49.080;11.896;2023-02-01T15:58:24;96363.00;;;5.40
33267;BMP180;19638;49.080;11.896;2023-02-01T16:02:34;96336.00;;;5.50
33267;BMP180;19638;49.080;11.896;2023-02-01T16:06:46;96351.00;;;5.50
33267;BMP180;19638;49.080;11.896;2023-02-01T16:11:00;96341.00;;;5.50
33267;BMP180;19638;49.080;11.896;2023-02-01T16:15:07;96347.00;;;5.50
33267;BMP180;19638;49.080;11.896;2023-02-01T16:19:10;96335.00;;;5.50
33267;BMP180;19638;49.080;11.896;2023-02-01T16:23:13;96346.00;;;5.50
33267;BMP180;19638;49.080;11.896;2023-02-01T16:27:17;96358.00;;;5.50
33267;BMP180;19638;49.080;11.896;2023-02-01T16:31:25;96344.00;;;5.40
33267;BMP180;19638;49.080;11.896;2023-02-01T16:35:33;96339.00;;;5.50
33267;BMP180;19638;49.080;11.896;2023-02-01T16:39:38;96363.00;;;5.50
33267;BMP180;19638;49.080;11.896;2023-02-01T16:43:43;96363.00;;;5.50
33267;BMP180;19638;49.080;11.896;2023-02-01T16:47:49;96350.00;;;5.50
33267;BMP180;19638;49.080;11.896;2023-02-01T16:51:57;96356.00;;;5.50
33267;BMP180;19638;49.080;11.896;2023-02-01T16:56:11;96369.00;;;5.50
33267;BMP180;19638;49.080;11.896;2023-02-01T17:00:18;96371.00;;;5.50
33267;BMP180;19638;49.080;11.896;2023-02-01T17:04:27;96356.00;;;5.60
33267;BMP180;19638;49.080;11.896;2023-02-01T17:08:32;96362.00;;;5.60
33267;BMP180;19638;49.080;11.896;2023-02-01T17:12:37;96372.00;;;5.60
33267;BMP180;19638;49.080;11.896;2023-02-01T17:16:44;96369.00;;;5.60
33267;BMP180;19638;49.080;11.896;2023-02-01T17:20:49;96360.00;;;5.70
33267;BMP180;19638;49.080;11.896;2023-02-01T17:24:57;96353.00;;;5.70
33267;BMP180;19638;49.080;11.896;2023-02-01T17:29:02;96357.00;;;5.70
33267;BMP180;19638;49.080;11.896;2023-02-01T17:33:19;96358.00;;;5.70
33267;BMP180;19638;49.080;11.896;2023-02-01T17:37:27;96352.00;;;5.70
33267;BMP180;19638;49.080;11.896;2023-02-01T17:41:31;96328.00;;;5.70
33267;BMP180;19638;49.080;11.896;2023-02-01T17:45:37;96336.00;;;5.70
33267;BMP180;19638;49.080;11.896;2023-02-01T17:49:44;96327.00;;;5.80
33267;BMP180;19638;49.080;11.896;2023-02-01T17:53:48;96305.00;;;5.80
33267;BMP180;19638;49.080;11.896;2023-02-01T17:57:52;96321.00;;;5.80
33267;BMP180;19638;49.080;11.896;2023-02-01T18:02:00;96305.00;;;5.80
33267;BMP180;19638;49.080;11.896;2023-02-01T18:06:13;96299.00;;;5.80
33267;BMP180;19638;49.080;11.896;2023-02-01T18:10:20;96328.00;;;5.80
33267;BMP180;19638;49.080;11.896;2023-02-01T18:14:23;96340.00;;;5.90
33267;BMP180;19638;49.080;11.896;2023-02-01T18:18:26;96330.00;;;5.90
33267;BMP180;19638;49.080;11.896;2023-02-01T18:22:31;96327.00;;;5.90
33267;BMP180;19638;49.080;11.896;2023-02-01T18:26:39;96320.00;;;5.90
33267;BMP180;19638;49.080;11.896;2023-02-01T18:30:44;96326.00;;;5.90
33267;BMP180;19638;49.080;11.896;2023-02-01T18:34:51;96332.00;;;5.90
33267;BMP180;19638;49.080;11.896;2023-02-01T18:38:57;96311.00;;;5.90
33267;BMP180;19638;49.080;11.896;2023-02-01T18:43:02;96318.00;;;5.80
33267;BMP180;19638;49.080;11.896;2023-02-01T18:47:05;96346.00;;;5.90
33267;BMP180;19638;49.080;11.896;2023-02-01T18:51:13;96329.00;;;5.90
33267;BMP180;19638;49.080;11.896;2023-02-01T18:55:18;96313.00;;;5.90
33267;BMP180;19638;49.080;11.896;2023-02-01T18:59:22;96307.00;;;5.90
33267;BMP180;19638;49.080;11.896;2023-02-01T19:03:25;96323.00;;;5.90
33267;BMP180;19638;49.080;11.896;2023-02-01T19:07:32;96333.00;;;6.00
33267;BMP180;19638;49.080;11.896;2023-02-01T19:11:38;96319.00;;;6.00
33267;BMP180;19638;49.080;11.896;2023-02-01T19:15:47;96322.00;;;6.00
33267;BMP180;19638;49.080;11.896;2023-02-01T19:19:55;96317.00;;;6.00
33267;BMP180;19638;49.080;11.896;2023-02-01T19:23:59;96329.00;;;6.00
33267;BMP180;19638;49.080;11.896;2023-02-01T19:28:06;96322.00;;;6.00
33267;BMP180;19638;49.080;11.896;2023-02-01T19:32:13;96335.00;;;6.10
33267;BMP180;19638;49.080;11.896;2023-02-01T19:36:17;96308.00;;;6.10
33267;BMP180;19638;49.080;11.896;2023-02-01T19:40:20;96308.00;;;6.10
33267;BMP180;19638;49.080;11.896;2023-02-01T19:44:25;96323.00;;;6.10
33267;BMP180;19638;49.080;11.896;2023-02-01T19:48:36;96310.00;;;6.10
33267;BMP180;19638;49.080;11.896;2023-02-01T19:52:40;96318.00;;;6.10
33267;BMP180;19638;49.080;11.896;2023-02-01T19:56:43;96320.00;;;6.10
33267;BMP180;19638;49.080;11.896;2023-02-01T20:00:50;96321.00;;;6.00
33267;BMP180;19638;49.080;11.896;2023-02-01T20:04:57;96346.00;;;5.90
33267;BMP180;19638;49.080;11.896;2023-02-01T20:09:04;96331.00;;;5.90
33267;BMP180;19638;49.080;11.896;2023-02-01T20:13:08;96323.00;;;5.90
33267;BMP180;19638;49.080;11.896;2023-02-01T20:17:16;96324.00;;;6.00
33267;BMP180;19638;49.080;11.896;2023-02-01T20:21:20;96332.00;;;6.00
33267;BMP180;19638;49.080;11.896;2023-02-01T20:25:27;96320.00;;;6.00
33267;BMP180;19638;49.080;11.896;2023-02-01T20:29:30;96346.00;;;6.00
33267;BMP180;19638;49.080;11.896;2023-02-01T20:33:35;96333.00;;;6.10
33267;BMP180;19638;49.080;11.896;2023-02-01T20:37:45;96353.00;;;6.10
33267;BMP180;19638;49.080;11.896;2023-02-01T20:41:49;96360.00;;;6.10
33267;BMP180;19638;49.080;11.896;2023-02-01T20:45:55;96339.00;;;6.20
33267;BMP180;19638;49.080;11.896;2023-02-01T20:49:58;96330.00;;;6.10
33267;BMP180;19638;49.080;11.896;2023-02-01T20:54:05;96322.00;;;6.20
33267;BMP180;19638;49.080;11.896;2023-02-01T20:58:08;96313.00;;;6.20
33267;BMP180;19638;49.080;11.896;2023-02-01T21:02:11;96317.00;;;6.20
33267;BMP180;19638;49.080;11.896;2023-02-01T21:06:17;96309.00;;;6.10
33267;BMP180;19638;49.080;11.896;2023-02-01T21:10:22;96333.00;;;6.10
33267;BMP180;19638;49.080;11.896;2023-02-01T21:14:28;96334.00;;;6.10
33267;BMP180;19638;49.080;11.896;2023-02-01T21:18:31;96318.00;;;6.10
33267;BMP180;19638;49.080;11.896;2023-02-01T21:22:34;96311.00;;;6.10
33267;BMP180;19638;49.080;11.896;2023-02-01T21:26:43;96303.00;;;6.10
33267;BMP180;19638;49.080;11.896;2023-02-01T21:30:50;96317.00;;;6.10
33267;BMP180;19638;49.080;11.896;2023-02-01T21:35:00;96327.00;;;6.00
33267;BMP180;19638;49.080;11.896;2023-02-01T21:39:05;96303.00;;;5.80
33267;BMP180;19638;49.080;11.896;2023-02-01T21:43:11;96312.00;;;5.70
33267;BMP180;19638;49.080;11.896;2023-02-01T21:47:16;96327.00;;;5.60
33267;BMP180;19638;49.080;11.896;2023-02-01T21:51:21;96331.00;;;5.40
33267;BMP180;19638;49.080;11.896;2023-02-01T21:55:25;96324.00;;;5.20
33267;BMP180;19638;49.080;11.896;2023-02-01T21:59:29;96336.00;;;5.10
33267;BMP180;19638;49.080;11.896;2023-02-01T22:03:39;96324.00;;;5.10
33267;BMP180;19638;49.080;11.896;2023-02-01T22:07:44;96328.00;;;5.10
33267;BMP180;19638;49.080;11.896;2023-02-01T22:11:48;96337.00;;;5.20
33267;BMP180;19638;49.080;11.896;2023-02-01T22:15:54;96319.00;;;5.20
33267;BMP180;19638;49.080;11.896;2023-02-01T22:19:57;96321.00;;;5.30
33267;BMP180;19638;49.080;11.896;2023-02-01T22:24:04;96299.00;;;5.40
33267;BMP180;19638;49.080;11.896;2023-02-01T22:28:08;96316.00;;;5.40
33267;BMP180;19638;49.080;11.896;2023-02-01T22:32:35;96329.00;;;5.20
33267;BMP180;19638;49.080;11.896;2023-02-01T22:36:38;96314.00;;;5.10
33267;BMP180;19638;49.080;11.896;2023-02-01T22:40:42;96322.00;;;5.10
33267;BMP180;19638;49.080;11.896;2023-02-01T22:44:45;96333.00;;;5.00
33267;BMP180;19638;49.080;11.896;2023-02-01T22:48:50;96318.00;;;5.00
33267;BMP180;19638;49.080;11.896;2023-02-01T22:52:53;96330.00;;;5.00
33267;BMP180;19638;49.080;11.896;2023-02-01T22:56:59;96341.00;;;5.00
33267;BMP180;19638;49.080;11.896;2023-02-01T23:01:06;96321.00;;;5.00
33267;BMP180;19638;49.080;11.896;2023-02-01T23:05:11;96324.00;;;5.10
33267;BMP180;19638;49.080;11.896;2023-02-01T23:09:17;96342.00;;;5.20
33267;BMP180;19638;49.080;11.896;2023-02-01T23:13:24;96318.00;;;5.30
33267;BMP180;19638;49.080;11.896;2023-02-01T23:17:30;96331.00;;;5.40
33267;BMP180;19638;49.080;11.896;2023-02-01T23:21:35;96322.00;;;5.50
33267;BMP180;19638;49.080;11.896;2023-02-01T23:25:48;96322.00;;;5.60
33267;BMP180;19638;49.080;11.896;2023-02-01T23:29:53;96303.00;;;5.60
33267;BMP180;19638;49.080;11.896;2023-02-01T23:33:56;96296.00;;;5.70
33267;BMP180;19638;49.080;11.896;2023-02-01T23:38:10;96303.00;;;5.70
33267;BMP180;19638;49.080;11.896;2023-02-01T23:42:13;96296.00;;;5.70
33267;BMP180;19638;49.080;11.896;2023-02-01T23:46:16;96293.00;;;5.70
33267;BMP180;19638;49.080;11.896;2023-02-01T23:50:20;96298.00;;;5.70
33267;BMP180;19638;49.080;11.896;2023-02-01T23:54:27;96301.00;;;5.80
33267;BMP180;19638;49.080;11.896;2023-02-01T23:58:37;96283.00;;;5.90
